KAPN/APN METAR and TAF weather

Enter ICAO airport designator
Station Type Date Time Source
KAPN METAR 2018/10/19 15:54 UTC NOAA

KAPN 191554Z AUTO 21009KT 10SM FEW120 13/06 A2985 RMK AO2 SLP110 T01330056


Station Type Date Time Source
KAPN Decoded METAR 2018/10/19 15:54 UTC NOAA

ALPENA COUNTY REGIONAL AIRPORT, MI, United States (KAPN) 45-05N 083-34W 210M
Oct 19, 2018 - 11:54 AM EDT / 2018.10.19 1554 UTC
Wind: from the SSW (210 degrees) at 10 MPH (9 KT):0
Visibility: 10 mile(s):0
Sky conditions: mostly clear
Temperature: 55.9 F (13.3 C)
Dew Point: 42.1 F (5.6 C)
Relative Humidity: 59%
Pressure (altimeter): 29.85 in. Hg (1010 hPa)
ob: KAPN 191554Z AUTO 21009KT 10SM FEW120 13/06 A2985 RMK AO2 SLP110 T01330056
cycle: 16

Station Type Date Time Source
KAPN TAF 2018/10/19 12:34 UTC NOAA

TAF KAPN 191132Z 1912/2012 22010KT P6SM SCT250 WS020/26040KT
FM191500 23012G21KT P6SM BKN120
FM191800 23014G22KT P6SM VCSH OVC045
FM192100 23014G26KT 6SM -SHRA BR OVC030
FM200300 28011G22KT P6SM VCSH OVC030
FM200600 30011G21KT P6SM BKN040


Example: see airport list